createdAt,value
2022-10-01T00:02:07.734Z,67.90
2022-10-01T00:04:37.623Z,70.60
2022-10-01T00:07:10.380Z,71.20
2022-10-01T00:09:38.748Z,68.20
2022-10-01T00:12:07.726Z,74.70
2022-10-01T00:14:39.284Z,70.30
2022-10-01T00:17:07.141Z,77.00
2022-10-01T00:19:34.957Z,76.50
2022-10-01T00:22:02.781Z,80.60
2022-10-01T00:24:30.449Z,78.40
2022-10-01T00:26:58.213Z,79.60
2022-10-01T00:29:25.845Z,73.50
2022-10-01T00:31:53.556Z,71.10
2022-10-01T00:34:21.397Z,82.40
2022-10-01T00:36:49.550Z,82.90
2022-10-01T00:39:17.217Z,85.70
2022-10-01T00:41:44.974Z,79.70
2022-10-01T00:44:36.197Z,82.10
2022-10-01T00:47:31.924Z,77.10
2022-10-01T00:50:22.609Z,77.00
2022-10-01T00:52:54.386Z,75.40
2022-10-01T00:55:26.823Z,85.00
2022-10-01T00:57:56.194Z,79.90
2022-10-01T01:00:24.022Z,74.30
2022-10-01T01:02:51.981Z,79.20
2022-10-01T01:05:20.045Z,71.30
2022-10-01T01:07:50.709Z,74.20
2022-10-01T01:10:49.565Z,82.60
2022-10-01T01:13:35.350Z,78.70
2022-10-01T01:16:12.907Z,78.20
2022-10-01T01:19:15.013Z,77.60
2022-10-01T01:21:48.102Z,75.40
2022-10-01T01:24:24.772Z,76.30
2022-10-01T01:26:58.782Z,74.00
2022-10-01T01:29:53.379Z,76.60
2022-10-01T01:32:36.394Z,73.50
2022-10-01T01:35:09.159Z,75.50
2022-10-01T01:37:44.926Z,75.40
2022-10-01T01:40:16.373Z,71.80
2022-10-01T01:42:46.697Z,72.80
2022-10-01T01:45:23.163Z,76.00
2022-10-01T01:47:56.165Z,75.60
2022-10-01T01:50:25.785Z,74.10
2022-10-01T01:52:54.546Z,78.20
2022-10-01T01:55:25.178Z,77.80
2022-10-01T01:57:54.585Z,78.10
2022-10-01T02:00:22.646Z,76.40
2022-10-01T02:02:54.154Z,80.00
2022-10-01T02:05:27.414Z,80.60
2022-10-01T02:08:22.075Z,84.40
2022-10-01T02:11:01.809Z,81.30
2022-10-01T02:13:44.673Z,75.10
2022-10-01T02:16:21.912Z,78.20
2022-10-01T02:19:05.049Z,75.50
2022-10-01T02:21:32.970Z,75.70
2022-10-01T02:24:14.694Z,72.50
2022-10-01T02:26:45.029Z,76.60
2022-10-01T02:29:16.889Z,75.90
2022-10-01T02:31:47.478Z,74.30
2022-10-01T02:34:20.218Z,75.20
2022-10-01T02:36:49.813Z,75.00
2022-10-01T02:39:19.217Z,78.70
2022-10-01T02:41:50.859Z,70.10
2022-10-01T02:44:23.870Z,71.90
2022-10-01T02:47:17.004Z,67.90
2022-10-01T02:49:44.969Z,72.40
2022-10-01T02:52:12.737Z,69.50
2022-10-01T02:54:43.365Z,73.90
2022-10-01T02:57:27.354Z,80.90
2022-10-01T03:00:00.183Z,71.70
2022-10-01T03:02:31.590Z,81.10
2022-10-01T03:05:00.375Z,77.80
2022-10-01T03:07:30.463Z,81.60
2022-10-01T03:09:58.373Z,78.30
2022-10-01T03:12:26.149Z,70.40
2022-10-01T03:14:53.886Z,79.90
2022-10-01T03:17:21.698Z,82.60
2022-10-01T03:19:49.433Z,84.00
2022-10-01T03:22:20.193Z,82.80
2022-10-01T03:24:51.497Z,83.30
2022-10-01T03:27:20.637Z,77.80
2022-10-01T03:29:48.878Z,84.30
2022-10-01T03:32:17.698Z,85.30
2022-10-01T03:34:45.671Z,79.70
2022-10-01T03:37:13.945Z,77.70
2022-10-01T03:39:41.705Z,77.00
2022-10-01T03:42:09.365Z,74.50
2022-10-01T03:44:37.340Z,76.30
2022-10-01T03:47:05.094Z,77.70
2022-10-01T03:49:33.985Z,72.30
2022-10-01T03:52:02.545Z,76.30
2022-10-01T03:54:31.569Z,65.20
2022-10-01T03:56:59.643Z,68.80
2022-10-01T03:59:27.613Z,70.20
2022-10-01T04:01:55.656Z,73.10
2022-10-01T04:04:23.525Z,70.00
2022-10-01T04:06:51.199Z,61.80
2022-10-01T04:09:18.961Z,63.80
2022-10-01T04:11:46.721Z,68.70
2022-10-01T04:14:14.401Z,57.90
2022-10-01T04:16:42.146Z,67.20
2022-10-01T04:19:09.906Z,59.50
2022-10-01T04:21:39.311Z,61.10
2022-10-01T04:24:07.089Z,61.10
2022-10-01T04:26:34.787Z,62.10
2022-10-01T04:29:02.483Z,54.60
2022-10-01T04:31:35.560Z,57.30
2022-10-01T04:34:04.283Z,61.00
2022-10-01T04:36:31.968Z,51.60
2022-10-01T04:39:02.402Z,58.80
2022-10-01T04:41:31.539Z,53.10
2022-10-01T04:44:00.407Z,55.00
2022-10-01T04:46:30.514Z,58.30
2022-10-01T04:48:58.548Z,57.00
2022-10-01T04:51:26.273Z,59.80
2022-10-01T04:53:54.054Z,53.60
2022-10-01T04:56:21.887Z,52.10
2022-10-01T04:58:49.684Z,53.00
2022-10-01T05:01:17.494Z,55.60
2022-10-01T05:03:45.238Z,55.00
2022-10-01T05:06:12.971Z,58.70
2022-10-01T05:08:40.739Z,52.30
2022-10-01T05:11:08.499Z,50.40
2022-10-01T05:13:37.676Z,53.80
2022-10-01T05:16:05.601Z,55.90
2022-10-01T05:18:33.543Z,56.30
2022-10-01T05:21:08.310Z,55.80
2022-10-01T05:23:35.927Z,53.50
2022-10-01T05:26:05.852Z,55.70
2022-10-01T05:28:35.058Z,55.70
2022-10-01T05:31:03.989Z,56.50
2022-10-01T05:33:31.785Z,54.00
2022-10-01T05:35:59.544Z,51.10
2022-10-01T05:38:27.162Z,54.20
2022-10-01T05:40:54.794Z,52.90
2022-10-01T05:43:22.419Z,55.90
2022-10-01T05:45:51.596Z,52.80
2022-10-01T05:48:19.487Z,53.10
2022-10-01T05:50:47.232Z,54.70
2022-10-01T05:53:16.162Z,54.20
2022-10-01T05:55:44.311Z,55.00
2022-10-01T05:58:14.092Z,56.00
2022-10-01T06:00:42.907Z,53.00
2022-10-01T06:03:13.210Z,57.60
2022-10-01T06:05:43.898Z,51.50
2022-10-01T06:08:12.382Z,57.40
2022-10-01T06:10:40.532Z,53.60
2022-10-01T06:13:08.284Z,54.00
2022-10-01T06:15:38.709Z,57.90
2022-10-01T06:18:08.717Z,53.80
2022-10-01T06:20:37.112Z,50.50
2022-10-01T06:23:07.517Z,52.50
2022-10-01T06:25:36.551Z,53.50
2022-10-01T06:28:06.097Z,53.90
2022-10-01T06:30:38.656Z,54.90
2022-10-01T06:33:15.398Z,53.80
2022-10-01T06:35:46.954Z,51.70
2022-10-01T06:38:16.220Z,57.50
2022-10-01T06:40:44.292Z,52.80
2022-10-01T06:43:11.955Z,52.00
2022-10-01T06:45:42.705Z,55.30
2022-10-01T06:48:14.070Z,61.30
2022-10-01T06:50:43.994Z,54.40
2022-10-01T06:53:13.152Z,55.90
2022-10-01T06:55:41.416Z,50.90
2022-10-01T06:58:12.765Z,56.00
2022-10-01T07:00:41.094Z,51.90
2022-10-01T07:03:14.042Z,45.10
2022-10-01T07:05:42.044Z,43.10
2022-10-01T07:08:09.953Z,47.30
2022-10-01T07:10:38.153Z,44.50
2022-10-01T07:13:18.525Z,48.80
2022-10-01T07:15:46.569Z,45.50
2022-10-01T07:18:14.647Z,43.70
2022-10-01T07:20:42.447Z,43.30
2022-10-01T07:23:15.488Z,49.10
2022-10-01T07:25:44.477Z,46.90
2022-10-01T07:28:18.732Z,46.30
2022-10-01T07:30:57.513Z,44.90
2022-10-01T07:33:25.280Z,42.60
2022-10-01T07:35:53.248Z,41.20
2022-10-01T07:38:21.317Z,38.70
2022-10-01T07:40:54.668Z,36.60
2022-10-01T07:43:23.051Z,37.30
2022-10-01T07:45:52.874Z,36.50
2022-10-01T07:48:20.703Z,34.40
2022-10-01T07:50:48.424Z,32.70
2022-10-01T07:53:16.512Z,32.80
2022-10-01T07:55:45.075Z,32.60
2022-10-01T07:58:12.840Z,33.90
2022-10-01T08:00:40.604Z,45.50
2022-10-01T08:03:12.122Z,36.30
2022-10-01T08:05:42.284Z,34.70
2022-10-01T08:08:09.953Z,33.80
2022-10-01T08:10:38.756Z,35.90
2022-10-01T08:13:15.622Z,32.60
2022-10-01T08:15:45.926Z,32.70
2022-10-01T08:18:14.075Z,32.90
2022-10-01T08:20:42.265Z,34.90
2022-10-01T08:23:15.161Z,36.70
2022-10-01T08:25:44.859Z,34.40
2022-10-01T08:28:12.906Z,32.30
2022-10-01T08:30:42.638Z,34.40
2022-10-01T08:33:12.325Z,40.00
2022-10-01T08:35:41.379Z,33.30
2022-10-01T08:38:09.935Z,36.90
2022-10-01T08:40:50.022Z,33.30
2022-10-01T08:43:41.081Z,31.40
2022-10-01T08:46:18.251Z,33.20
2022-10-01T08:49:08.556Z,31.60
2022-10-01T08:51:42.269Z,30.70
2022-10-01T08:54:42.902Z,30.60
2022-10-01T08:57:15.047Z,28.70
2022-10-01T08:59:45.486Z,29.20
2022-10-01T09:02:28.116Z,25.20
2022-10-01T09:05:02.984Z,26.30
2022-10-01T09:07:36.704Z,24.90
2022-10-01T09:10:36.037Z,24.70
2022-10-01T09:13:18.907Z,19.70
2022-10-01T09:15:53.165Z,19.70
2022-10-01T09:18:48.886Z,17.70
2022-10-01T09:21:28.229Z,17.40
2022-10-01T09:24:14.516Z,16.20
2022-10-01T09:26:49.042Z,16.40
2022-10-01T09:29:25.722Z,16.70
2022-10-01T09:31:55.306Z,16.40
2022-10-01T09:34:35.271Z,14.70
2022-10-01T09:37:21.659Z,14.50
2022-10-01T09:40:15.716Z,17.20
2022-10-01T09:42:44.073Z,14.60
2022-10-01T09:45:14.877Z,15.20
2022-10-01T09:47:48.206Z,13.00
2022-10-01T09:50:28.506Z,16.60
2022-10-01T09:53:00.388Z,11.80
2022-10-01T09:55:39.410Z,13.00
2022-10-01T09:58:17.196Z,12.80
2022-10-01T10:00:45.611Z,14.80
2022-10-01T10:03:27.919Z,15.40
2022-10-01T10:05:57.603Z,14.40
2022-10-01T10:08:35.756Z,14.00
2022-10-01T10:11:08.687Z,13.60
2022-10-01T10:13:49.236Z,12.00
2022-10-01T10:16:27.903Z,12.40
2022-10-01T10:19:00.691Z,11.00
2022-10-01T10:21:31.979Z,9.80
2022-10-01T10:24:02.837Z,8.40
2022-10-01T10:26:35.000Z,9.00
2022-10-01T10:29:04.902Z,9.10
2022-10-01T10:31:43.501Z,7.40
2022-10-01T10:34:38.523Z,7.70
2022-10-01T10:37:16.877Z,10.20
2022-10-01T10:39:51.244Z,6.90
2022-10-01T10:42:20.054Z,6.90
2022-10-01T10:44:51.093Z,8.00
2022-10-01T10:47:21.272Z,7.90
2022-10-01T10:49:57.180Z,7.70
2022-10-01T10:52:30.120Z,18.10
2022-10-01T10:55:00.154Z,10.90
2022-10-01T10:57:34.188Z,9.30
2022-10-01T11:00:11.953Z,11.80
2022-10-01T11:02:49.044Z,10.00
2022-10-01T11:05:32.989Z,10.00
2022-10-01T11:08:05.248Z,11.60
2022-10-01T11:11:10.438Z,9.40
2022-10-01T11:13:49.829Z,9.00
2022-10-01T11:17:00.288Z,8.10
2022-10-01T11:19:37.190Z,11.90
2022-10-01T11:22:28.890Z,10.50
2022-10-01T11:25:02.721Z,8.80
2022-10-01T11:28:01.167Z,9.70
2022-10-01T11:30:58.815Z,9.60
2022-10-01T11:34:15.925Z,9.00
2022-10-01T11:39:17.736Z,9.40
2022-10-01T11:42:08.317Z,8.90
2022-10-01T11:44:43.791Z,9.00
2022-10-01T11:47:20.836Z,7.40
2022-10-01T11:50:19.339Z,8.30
2022-10-01T11:53:17.850Z,7.90
2022-10-01T11:56:18.868Z,9.70
2022-10-01T11:58:57.402Z,9.70
2022-10-01T12:01:50.702Z,8.20
2022-10-01T12:04:33.582Z,8.80
2022-10-01T12:07:12.288Z,9.20
2022-10-01T12:09:42.808Z,8.50
2022-10-01T12:12:19.700Z,9.20
2022-10-01T12:15:06.836Z,8.40
2022-10-01T12:17:47.112Z,8.50
2022-10-01T12:20:33.050Z,9.00
2022-10-01T12:23:05.328Z,9.20
2022-10-01T12:25:58.209Z,9.00
2022-10-01T12:28:38.946Z,9.00
2022-10-01T12:31:39.902Z,9.80
2022-10-01T12:34:25.605Z,8.80
2022-10-01T12:39:38.996Z,8.00
2022-10-01T12:42:21.729Z,7.00
2022-10-01T12:44:58.594Z,9.40
2022-10-01T12:47:54.930Z,8.30
2022-10-01T12:50:38.973Z,8.40
2022-10-01T12:53:17.998Z,8.50
2022-10-01T12:56:01.380Z,9.50
2022-10-01T12:58:49.365Z,8.10
2022-10-01T13:01:29.318Z,10.30
2022-10-01T13:04:08.799Z,10.30
2022-10-01T13:07:00.487Z,8.40
2022-10-01T13:09:48.938Z,7.90
2022-10-01T13:12:36.973Z,8.80
2022-10-01T13:15:12.049Z,9.20
2022-10-01T13:17:50.213Z,9.90
2022-10-01T13:20:26.263Z,9.80
2022-10-01T13:23:07.334Z,9.00
2022-10-01T13:25:48.158Z,8.10
2022-10-01T13:28:26.850Z,9.20
2022-10-01T13:31:00.636Z,8.40
2022-10-01T13:33:36.085Z,7.20
2022-10-01T13:36:06.738Z,9.30
2022-10-01T13:38:48.018Z,13.20
2022-10-01T13:41:25.907Z,11.70
2022-10-01T13:44:22.113Z,10.30
2022-10-01T13:49:28.858Z,9.10
2022-10-01T13:51:58.130Z,11.70
2022-10-01T13:54:43.581Z,10.60
2022-10-01T13:57:22.909Z,13.50
2022-10-01T14:00:16.962Z,13.00
2022-10-01T14:03:00.366Z,26.30
2022-10-01T14:05:35.194Z,14.10
2022-10-01T14:08:12.193Z,9.40
2022-10-01T14:11:08.255Z,12.20
2022-10-01T14:14:06.533Z,11.10
2022-10-01T14:16:42.014Z,11.70
2022-10-01T14:19:17.534Z,11.30
2022-10-01T14:21:45.181Z,13.70
2022-10-01T14:24:29.533Z,14.40
2022-10-01T14:27:09.587Z,13.10
2022-10-01T14:29:52.414Z,14.20
2022-10-01T14:32:42.086Z,17.20
2022-10-01T14:35:23.561Z,13.20
2022-10-01T14:37:51.761Z,13.30
2022-10-01T14:40:23.492Z,13.10
2022-10-01T14:43:03.325Z,13.40
2022-10-01T14:45:31.025Z,14.00
2022-10-01T14:48:03.574Z,16.90
2022-10-01T14:50:35.045Z,15.50
2022-10-01T14:53:03.081Z,14.30
2022-10-01T14:55:31.696Z,15.10
2022-10-01T14:57:59.396Z,15.80
2022-10-01T15:00:29.919Z,13.40
2022-10-01T15:03:10.237Z,20.20
2022-10-01T15:05:38.418Z,15.30
2022-10-01T15:08:24.239Z,15.00
2022-10-01T15:13:38.140Z,13.60
2022-10-01T15:16:13.019Z,17.90
2022-10-01T15:18:46.574Z,14.00
2022-10-01T15:21:48.570Z,14.50
2022-10-01T15:24:30.229Z,15.40
2022-10-01T15:26:58.927Z,18.00
2022-10-01T15:29:27.034Z,15.30
2022-10-01T15:31:57.790Z,16.30
2022-10-01T15:34:27.523Z,17.40
2022-10-01T15:36:56.828Z,18.70
2022-10-01T15:39:38.628Z,19.30
2022-10-01T15:42:21.649Z,19.10
2022-10-01T15:44:50.122Z,22.50
2022-10-01T15:47:20.745Z,22.80
2022-10-01T15:50:16.877Z,19.30
2022-10-01T15:52:51.027Z,19.20
2022-10-01T15:55:34.133Z,22.30
2022-10-01T15:58:10.882Z,20.90
2022-10-01T16:00:52.498Z,20.40
2022-10-01T16:03:31.319Z,20.70
2022-10-01T16:06:01.923Z,22.20
2022-10-01T16:08:57.973Z,21.70
2022-10-01T16:11:31.969Z,18.20
2022-10-01T16:14:23.272Z,17.90
2022-10-01T16:16:53.185Z,17.20
2022-10-01T16:19:30.133Z,22.30
2022-10-01T16:22:31.871Z,18.30
2022-10-01T16:25:27.270Z,21.90
2022-10-01T16:28:04.078Z,20.50
2022-10-01T16:30:34.310Z,20.10
2022-10-01T16:33:04.661Z,19.80
2022-10-01T16:35:36.213Z,19.20
2022-10-01T16:38:09.975Z,19.90
2022-10-01T16:40:44.807Z,22.70
2022-10-01T16:43:23.751Z,22.40
2022-10-01T16:45:52.129Z,21.20
2022-10-01T16:48:23.236Z,21.30
2022-10-01T16:50:59.621Z,21.10
2022-10-01T16:53:29.120Z,22.90
2022-10-01T16:55:59.796Z,23.20
2022-10-01T16:58:29.591Z,26.70
2022-10-01T17:00:59.001Z,25.80
2022-10-01T17:03:28.920Z,26.10
2022-10-01T17:05:57.197Z,26.30
2022-10-01T17:08:24.973Z,25.90
2022-10-01T17:10:58.562Z,27.40
2022-10-01T17:13:30.444Z,24.10
2022-10-01T17:15:58.747Z,30.50
2022-10-01T17:18:26.764Z,27.00
2022-10-01T17:20:56.239Z,25.70
2022-10-01T17:23:24.468Z,27.50
2022-10-01T17:25:52.306Z,25.50
2022-10-01T17:28:20.730Z,27.90
2022-10-01T17:30:49.499Z,25.30
2022-10-01T17:33:21.946Z,23.40
2022-10-01T17:35:55.618Z,23.80
2022-10-01T17:38:23.732Z,27.00
2022-10-01T17:40:56.407Z,24.30
2022-10-01T17:43:24.605Z,25.30
2022-10-01T17:45:57.777Z,26.40
2022-10-01T17:48:27.363Z,24.40
2022-10-01T17:51:05.747Z,27.00
2022-10-01T17:53:41.855Z,24.10
2022-10-01T17:56:18.470Z,27.90
2022-10-01T17:58:46.745Z,27.30
2022-10-01T18:01:19.945Z,27.00
2022-10-01T18:03:52.360Z,27.50
2022-10-01T18:06:20.031Z,24.10
2022-10-01T18:08:56.319Z,25.60
2022-10-01T18:11:27.027Z,29.10
2022-10-01T18:13:54.773Z,34.30
2022-10-01T18:16:24.083Z,27.50
2022-10-01T18:21:48.529Z,23.60
2022-10-01T18:24:17.084Z,22.60
2022-10-01T18:26:45.899Z,26.00
2022-10-01T18:29:25.039Z,26.10
2022-10-01T18:31:59.197Z,24.20
2022-10-01T18:34:49.369Z,30.80
2022-10-01T18:37:40.139Z,28.10
2022-10-01T18:40:13.779Z,26.50
2022-10-01T18:42:44.927Z,27.80
2022-10-01T18:45:21.047Z,29.50
2022-10-01T18:48:10.008Z,28.60
2022-10-01T18:50:48.053Z,29.00
2022-10-01T18:53:30.580Z,38.00
2022-10-01T18:56:18.590Z,57.30
2022-10-01T18:59:23.931Z,48.30
2022-10-01T19:02:01.133Z,56.70
2022-10-01T19:05:19.772Z,42.20
2022-10-01T19:08:13.576Z,50.90
2022-10-01T19:11:01.376Z,37.10
2022-10-01T19:13:31.983Z,36.40
2022-10-01T19:16:11.997Z,39.40
2022-10-01T19:19:31.123Z,36.80
2022-10-01T19:22:10.971Z,35.80
2022-10-01T19:24:54.800Z,41.20
2022-10-01T19:27:49.530Z,49.60
2022-10-01T19:30:19.931Z,47.80
2022-10-01T19:32:58.276Z,40.00
2022-10-01T19:35:28.567Z,44.80
2022-10-01T19:38:14.961Z,45.60
2022-10-01T19:40:54.166Z,43.10
2022-10-01T19:43:27.710Z,48.00
2022-10-01T19:46:19.181Z,41.30
2022-10-01T19:49:00.727Z,37.90
2022-10-01T19:51:36.253Z,34.20
2022-10-01T19:56:34.036Z,36.50
2022-10-01T19:59:10.996Z,36.90
2022-10-01T20:01:48.618Z,40.30
2022-10-01T20:04:23.428Z,38.20
2022-10-01T20:06:58.360Z,36.90
2022-10-01T20:09:39.350Z,36.80
2022-10-01T20:12:06.946Z,33.90
2022-10-01T20:15:21.852Z,38.20
2022-10-01T20:17:55.388Z,36.20
2022-10-01T20:20:30.897Z,41.10
2022-10-01T20:25:44.598Z,51.50
2022-10-01T20:28:36.552Z,47.40
2022-10-01T20:31:23.273Z,54.90
2022-10-01T20:34:21.772Z,53.60
2022-10-01T20:37:23.441Z,46.90
2022-10-01T20:39:57.948Z,49.50
2022-10-01T20:42:38.821Z,50.80
2022-10-01T20:45:18.129Z,41.20
2022-10-01T20:47:54.109Z,45.10
2022-10-01T20:50:39.224Z,39.80
2022-10-01T20:53:18.207Z,37.80
2022-10-01T20:55:56.004Z,36.10
2022-10-01T20:58:31.768Z,32.80
2022-10-01T21:01:17.202Z,30.70
2022-10-01T21:03:51.995Z,28.70
2022-10-01T21:06:34.056Z,31.50
2022-10-01T21:09:19.896Z,25.90
2022-10-01T21:11:58.473Z,27.80
2022-10-01T21:14:44.451Z,24.00
2022-10-01T21:20:10.518Z,22.20
2022-10-01T21:22:47.058Z,23.20
2022-10-01T21:25:32.675Z,19.90
2022-10-01T21:28:04.187Z,20.10
2022-10-01T21:30:53.772Z,16.10
2022-10-01T21:33:34.159Z,15.20
2022-10-01T21:36:45.734Z,13.60
2022-10-01T21:39:32.527Z,12.90
2022-10-01T21:42:22.414Z,11.20
2022-10-01T21:45:25.901Z,18.10
2022-10-01T21:48:16.224Z,12.70
2022-10-01T21:50:57.027Z,14.10
2022-10-01T21:53:39.783Z,11.80
2022-10-01T21:56:18.482Z,12.00
2022-10-01T21:59:16.976Z,11.90
2022-10-01T22:02:04.840Z,13.20
2022-10-01T22:04:50.712Z,9.70
2022-10-01T22:07:44.489Z,10.20
2022-10-01T22:10:25.085Z,9.20
2022-10-01T22:12:58.772Z,12.40
2022-10-01T22:15:41.562Z,9.60
2022-10-01T22:18:18.350Z,9.50
2022-10-01T22:20:48.168Z,10.30
2022-10-01T22:23:20.138Z,11.10
2022-10-01T22:26:02.015Z,11.30
2022-10-01T22:28:39.121Z,13.00
2022-10-01T22:31:14.584Z,10.40
2022-10-01T22:33:49.162Z,9.90
2022-10-01T22:36:29.215Z,11.80
2022-10-01T22:39:03.419Z,10.30
2022-10-01T22:42:32.599Z,9.90
2022-10-01T22:45:09.707Z,9.10
2022-10-01T22:47:56.107Z,10.60
2022-10-01T22:50:42.200Z,10.30
2022-10-01T22:53:21.659Z,12.50
2022-10-01T22:55:55.235Z,16.20
2022-10-01T22:58:42.149Z,11.80
2022-10-01T23:01:46.887Z,11.20
2022-10-01T23:04:15.180Z,16.00
2022-10-01T23:07:21.471Z,16.10
2022-10-01T23:10:10.175Z,16.80
2022-10-01T23:13:11.927Z,15.90
2022-10-01T23:16:06.292Z,17.60
2022-10-01T23:18:57.330Z,16.90
2022-10-01T23:21:33.899Z,14.40
2022-10-01T23:24:32.390Z,13.80
2022-10-01T23:27:27.435Z,15.30
2022-10-01T23:30:16.423Z,14.70
2022-10-01T23:33:10.500Z,13.60
2022-10-01T23:35:47.091Z,13.70
2022-10-01T23:38:17.827Z,13.70
2022-10-01T23:40:48.265Z,12.70
2022-10-01T23:43:31.447Z,12.40
2022-10-01T23:46:14.446Z,12.30
2022-10-01T23:48:50.727Z,12.50
2022-10-01T23:51:26.076Z,11.10
2022-10-01T23:53:53.661Z,12.40
2022-10-01T23:56:50.553Z,12.60
2022-10-01T23:59:39.038Z,14.40
